• Join FlightAware (Why Join?)
  • Login
  • US Flag 
Trick or treat! (Boo!!) 
04:03PM EDT


 

Airport Tracker/Info


-or-


 

Live Flight TrackerFlight Track Log ✈ N469S ✈ 13-Jun-2013 ✈ KBHM - KMQJ

Flight Track Log - Related Links

Times and Time Zones

All times are in EDT time to prevent confusion due to time zone crossing. See the N469S flight status page for this flight to view local times or setup timezone preferences in your user account.

Time Position Orientation Groundspeed Altitude Reporting Facility
EDT Latitude Longitude Course Direction KTS MPH feet Rate Location/Type
06:10PM 33.5353 -86.8225 250° West 117 135 2,300  Level Atlanta Center
06:11PM 33.5447 -86.8628 286° West 117 135 3,000 360 Climbing Atlanta Center
06:12PM 33.5564 -86.9031 289° West 146 168 3,100  Climbing Atlanta Center
06:13PM 33.5806 -86.9411 307° West 161 185 3,100  Level Atlanta Center
06:14PM 33.6067 -86.9869 304° West 158 182 3,100  Level Atlanta Center
06:15PM 33.6306 -87.0303 304° West 159 183 3,100  Level Atlanta Center
06:16PM 33.6547 -87.0711 305° West 155 178 3,100 180 Level Atlanta Center
06:17PM 33.6767 -87.1117 303° West 148 170 3,500 600 Climbing Atlanta Center
06:18PM 33.7008 -87.1425 313° West 107 123 4,400 720 Climbing Atlanta Center
06:19PM 33.7303 -87.1336 14° North 116 133 5,000 720 Climbing Atlanta Center
06:20PM 33.7619 -87.1222 17° North 117 135 5,900 840 Climbing Atlanta Center
06:21PM 33.7978 -87.1111 14° North 112 129 6,800 780 Climbing Atlanta Center
06:22PM 33.8272 -87.0994 18° North 114 131 7,600 600 Climbing Atlanta Center
06:23PM 33.8586 -87.0931 10° North 120 138 8,000 240 Climbing Atlanta Center
06:24PM 33.8986 -87.0794 16° North 155 178 8,100 420 Climbing Atlanta Center
06:25PM 33.9406 -87.0786 North 154 177 8,900 660 Climbing Atlanta Center
06:26PM 33.9614 -87.0692 21° North 192 221 9,200 540 Climbing Atlanta Center
06:26PM 33.9719 -87.0672 North 126 145 9,400 600 Climbing Atlanta Center
06:27PM 33.9931 -87.0603 15° North 152 175 9,800 600 Climbing Atlanta Center
06:27PM 34.0097 -87.0583 North 124 143 10,100 480 Climbing Atlanta Center
06:29PM 34.0778 -87.0269 21° North 134 154 11,000 300 Climbing Memphis Center
06:30PM 34.1214 -87.0103 18° North 140 161 11,000 120 Level Memphis Center
06:31PM 34.1692 -87.0033 North 158 182 11,300 600 Climbing Memphis Center
06:32PM 34.2083 -86.9917 14° North 158 182 12,300 720 Climbing Memphis Center
06:33PM 34.2478 -86.9853 North 141 162 12,800 540 Climbing Memphis Center
06:34PM 34.2875 -86.9811 North 141 162 13,400 540 Climbing Memphis Center
06:35PM 34.3247 -86.9694 15° North 141 162 13,900 420 Climbing Memphis Center
06:36PM 34.3661 -86.9578 13° North 141 162 14,300 420 Climbing Memphis Center
06:37PM 34.4053 -86.9461 14° North 141 162 14,800 300 Climbing Memphis Center
06:38PM 34.4447 -86.9344 14° North 141 162 15,000 60 Climbing Memphis Center
06:39PM 34.4903 -86.9253 North 147 169 15,000  Level Memphis Center
06:40PM 34.5358 -86.9133 12° North 153 176 15,000  Level Memphis Center
06:41PM 34.5836 -86.9011 12° North 164 189 15,000  Level Memphis Center
06:42PM 34.6314 -86.8917 North 169 194 15,000  Level Memphis Center
06:43PM 34.6792 -86.8822 North 169 194 15,000  Level Memphis Center
06:44PM 34.7267 -86.8700 12° North 169 194 15,000 -60 Level Memphis Center
06:45PM 34.7767 -86.8631 North 169 194 14,900 -60 Descending Memphis Center
06:46PM 34.8242 -86.8483 14° North 169 194 14,900  Level Memphis Center
06:47PM 34.8717 -86.8361 12° North 169 194 14,900  Level Memphis Center
06:48PM 34.9153 -86.8217 15° North 169 194 14,900  Level Memphis Center
06:49PM 34.9647 -86.8069 14° North 169 194 14,900  Level Memphis Center
06:50PM 35.0125 -86.7922 14° North 169 194 14,900  Level Memphis Center
06:51PM 35.0600 -86.7828 North 169 194 14,900  Level Memphis Center
06:52PM 35.1056 -86.7706 12° North 169 194 14,900  Level Memphis Center
06:53PM 35.1492 -86.7611 10° North 169 194 14,900  Level Memphis Center
06:54PM 35.1947 -86.7489 12° North 164 189 14,900  Level Memphis Center
06:55PM 35.2444 -86.7367 11° North 169 194 14,900  Level Memphis Center
06:56PM 35.2942 -86.7269 North 175 201 14,900  Level Memphis Center
06:57PM 35.3439 -86.7119 14° North 181 208 14,900  Level Memphis Center
06:58PM 35.3914 -86.6972 14° North 181 208 15,000  Climbing Memphis Center
06:59PM 35.4411 -86.6872 North 176 203 15,000  Level Memphis Center
07:00PM 35.4950 -86.6722 13° North 181 208 15,000  Level Memphis Center
07:01PM 35.5344 -86.6653 North 181 208 15,000  Level Memphis Center
07:02PM 35.5925 -86.6550 North 176 203 15,000  Level Memphis Center
07:03PM 35.6403 -86.6478 North 181 208 15,000  Level Memphis Center
07:04PM 35.6897 -86.6356 11° North 181 208 15,000  Level Memphis Center
07:05PM 35.7375 -86.6256 10° North 181 208 15,000  Level Memphis Center
07:06PM 35.7894 -86.6156 North 181 208 15,000  Level Memphis Center
07:07PM 35.8367 -86.5981 17° North 181 208 15,000  Level Memphis Center
07:08PM 35.8883 -86.5828 13° North 181 208 15,000  Level Memphis Center
07:09PM 35.9361 -86.5706 12° North 181 208 15,000  Level Memphis Center
07:10PM 35.9878 -86.5553 13° North 181 208 15,000  Level Memphis Center
07:11PM 36.0311 -86.5403 16° North 181 208 15,000  Level Memphis Center
07:12PM 36.0828 -86.5250 13° North 181 208 15,000  Level Memphis Center
07:13PM 36.1322 -86.5075 16° North 181 208 15,000  Level Memphis Center
07:14PM 36.1817 -86.4922 14° North 195 224 15,000  Level Memphis Center
07:15PM 36.2333 -86.4769 13° North 202 232 15,000  Level Memphis Center
07:16PM 36.2828 -86.4592 16° North 197 227 15,000  Level Memphis Center
07:17PM 36.3344 -86.4464 11° North 191 220 15,000  Level Memphis Center
07:18PM 36.3822 -86.4389 North 180 207 15,000  Level Memphis Center
07:19PM 36.4339 -86.4286 North 180 207 15,000  Level Memphis Center
07:20PM 36.4878 -86.4156 11° North 180 207 15,000  Level Memphis Center
07:21PM 36.5375 -86.4031 11° North 180 207 15,000  Level Memphis Center
07:22PM 36.5872 -86.3928 North 180 207 15,000  Level Memphis Center
07:23PM 36.6367 -86.3800 12° North 180 207 15,000  Level Memphis Center
07:24PM 36.6864 -86.3672 12° North 180 207 15,000  Level Memphis Center
07:25PM 36.7361 -86.3569 North 180 207 15,000  Level Memphis Center
07:26PM 36.7836 -86.3417 14° North 180 207 15,000  Level Memphis Center
07:27PM 36.8331 -86.3286 12° North 180 207 15,000  Level Memphis Center
07:28PM 36.8828 -86.3183 North 180 207 15,000  Level Memphis Center
07:29PM 36.8994 -86.3125 16° North 182 209 15,000  Level Indianapolis Center
07:30PM 36.9553 -86.2978 12° North 176 203 15,000  Level Indianapolis Center
07:31PM 37.0028 -86.2858 11° North 174 200 15,000  Level Indianapolis Center
07:32PM 37.0522 -86.2739 11° North 178 205 15,000  Level Indianapolis Center
07:33PM 37.1011 -86.2631 10° North 178 205 15,000  Level Indianapolis Center
07:34PM 37.1503 -86.2503 12° North 178 205 15,000  Level Indianapolis Center
07:35PM 37.1983 -86.2364 13° North 176 203 15,000  Level Indianapolis Center
07:36PM 37.2467 -86.2236 12° North 176 203 15,000  Level Indianapolis Center
07:37PM 37.2942 -86.2131 10° North 173 199 15,000  Level Indianapolis Center
07:38PM 37.3503 -86.2003 10° North 175 201 15,000  Level Indianapolis Center
07:39PM 37.3969 -86.1911 North 171 197 15,000  Level Indianapolis Center
07:40PM 37.4442 -86.1803 10° North 170 196 15,000  Level Indianapolis Center
07:41PM 37.4911 -86.1703 10° North 171 197 15,000  Level Indianapolis Center
07:42PM 37.5381 -86.1567 13° North 171 197 15,000  Level Indianapolis Center
07:43PM 37.5839 -86.1431 13° North 174 200 15,000  Level Indianapolis Center
07:44PM 37.6297 -86.1283 14° North 171 197 15,000  Level Indianapolis Center
07:45PM 37.6761 -86.1153 13° North 170 196 15,000  Level Indianapolis Center
07:46PM 37.7317 -86.0983 14° North 170 196 15,000  Level Indianapolis Center
07:47PM 37.7783 -86.0847 13° North 172 198 15,000  Level Indianapolis Center
07:48PM 37.8244 -86.0717 13° North 170 196 15,000  Level Indianapolis Center
07:49PM 37.8711 -86.0583 13° North 170 196 15,000  Level Indianapolis Center
07:50PM 37.9183 -86.0453 12° North 173 199 15,000  Level Indianapolis Center
07:51PM 37.9650 -86.0294 15° North 173 199 15,000  Level Indianapolis Center
07:52PM 38.0119 -86.0167 12° North 172 198 15,000  Level Indianapolis Center
07:53PM 38.0583 -86.0036 12° North 170 196 15,000  Level Indianapolis Center
07:54PM 38.1139 -85.9892 12° North 170 196 15,000  Level Indianapolis Center
07:55PM 38.1614 -85.9761 12° North 173 199 15,000  Level Indianapolis Center
07:56PM 38.2078 -85.9642 11° North 171 197 15,000  Level Indianapolis Center
07:57PM 38.2550 -85.9511 12° North 173 199 15,000  Level Indianapolis Center
07:58PM 38.3011 -85.9375 13° North 171 197 15,000  Level Indianapolis Center
08:02PM 38.4900 -85.8842 12° North 164 189 15,000  Level Indianapolis Center
08:04PM 38.5358 -85.8728 11° North 165 190 15,000  Level Indianapolis Center
08:05PM 38.5803 -85.8594 13° North 165 190 15,000  Level Indianapolis Center
08:06PM 38.6250 -85.8464 13° North 164 189 15,000  Level Indianapolis Center
08:07PM 38.6689 -85.8358 11° North 163 188 15,000 -300 Level Indianapolis Center
08:08PM 38.7156 -85.8281 North 166 191 14,500 -540 Descending Indianapolis Center
08:09PM 38.7664 -85.8225 North 180 207 14,000 -720 Descending Indianapolis Center
08:10PM 38.8272 -85.8153 North 183 211 13,100 -840 Descending Indianapolis Center
08:11PM 38.8803 -85.8114 North 189 217 12,300 -540 Descending Indianapolis Center
08:12PM 38.9308 -85.8036 North 185 213 12,000 -180 Descending Indianapolis Center
08:13PM 38.9758 -85.7950 North 167 192 12,000  Level Indianapolis Center
08:14PM 39.0203 -85.7883 North 163 188 12,000  Level Indianapolis Center
08:15PM 39.0636 -85.7850 North 157 181 12,000  Level Indianapolis Center
08:16PM 39.1072 -85.7767 North 159 183 12,000 -360 Level Indianapolis Center
08:17PM 39.1633 -85.7764 360° North 166 191 11,300 -780 Descending Indianapolis Center
08:18PM 39.2142 -85.7861 352° North 182 209 10,500 -780 Descending Indianapolis Center
08:19PM 39.2625 -85.7953 352° North 177 204 9,700 -780 Descending Indianapolis Center
08:20PM 39.3131 -85.8022 354° North 182 209 9,000 -840 Descending Indianapolis Center
08:21PM 39.3617 -85.8167 347° North 180 207 8,000 -900 Descending Indianapolis Center
08:22PM 39.4136 -85.8253 353° North 186 214 7,200 -780 Descending Indianapolis Center
08:23PM 39.4639 -85.8378 349° North 186 214 6,500 -780 Descending Indianapolis Center
08:24PM 39.5203 -85.8528 348° North 177 204 5,700 -780 Descending Indianapolis Center
08:25PM 39.5656 -85.8589 354° North 171 197 5,000 -480 Descending Indianapolis Center
08:26PM 39.6078 -85.8639 322° Northwest 168 193 4,800 -240 Descending Indianapolis Center
08:27PM 39.6327 -85.8681 322° Northwest  Level Estimated